This is the latest recevied weather packets stored in our database for station/object nz4d-1. If no packets are shown the sender has not sent any weather packets the latest 10 day(s).
| Time | Temp. | Humidity | Pressure | Rain* | Wind** | Luminosity | Snow |
|---|---|---|---|---|---|---|---|
| 1777879804 | 6.67° C | 89% | 1018.7 hPa | 0 mm | - | - | - |
| 1777876805 | 6.67° C | 89% | 1018.7 hPa | 0 mm | - | - | - |
| 1777876206 | 6.67° C | 89% | 1018.7 hPa | 0 mm | - | - | - |
| 1777872610 | 7.22° C | 88% | 1018.8 hPa | 0 mm | - | - | - |
| 1777866605 | 7.78° C | 86% | 1018.7 hPa | 0 mm | - | - | - |
| 1777863005 | 8.89° C | 83% | 1018.8 hPa | 0 mm | - | - | - |
| 1777861804 | 8.89° C | 82% | 1018.8 hPa | 0 mm | - | - | - |
| 1777858804 | 10.56° C | 78% | 1018.3 hPa | 0 mm | - | - | - |
| 1777855204 | 12.78° C | 71% | 1017.5 hPa | 0 mm | - | - | - |
| 1777854004 | 13.89° C | 67% | 1017.3 hPa | 0 mm | - | - | - |
| 1777851013 | 15.56° C | 56% | 1017.1 hPa | 0 mm | - | - | - |
| 1777849804 | 16.67° C | 53% | 1016.9 hPa | 0 mm | - | - | - |
| 1777843204 | 17.78° C | 45% | 1016.8 hPa | 0 mm | - | - | - |
| 1777836604 | 17.22° C | 47% | 1017.5 hPa | 0 mm | - | - | - |
| 1777831804 | 16.67° C | 50% | 1018.5 hPa | 0 mm | - | - | - |
| 1777827005 | 16.11° C | 51% | 1019 hPa | 0 mm | - | - | - |
| 1777826405 | 16.11° C | 50% | 1019.1 hPa | 0 mm | - | - | - |
| 1777821005 | 14.44° C | 55% | 1019.5 hPa | 0 mm | - | - | - |
| 1777820405 | 14.44° C | 56% | 1019.6 hPa | 0 mm | - | - | - |
| 1777819205 | 13.89° C | 63% | 1019.6 hPa | 0 mm | - | - | - |
| 1777813205 | 10.56° C | 82% | 1019.3 hPa | 0 mm | - | - | - |
| 1777807805 | 6.67° C | 91% | 1018.1 hPa | 0 mm | - | - | - |
| 1777800606 | 10° C | 97% | 1016.1 hPa | 0 mm | - | - | - |
| 1777794005 | 10° C | 97% | 1015.2 hPa | 0 mm | - | - | - |
| 1777791005 | 10° C | 97% | 1014.6 hPa | 0 mm | - | - | - |
* Rain latest hour (hover to see other rain measurements)
** Current wind speed in m/s (hover to see current wind gust speed)